sensor_id;sensor_type;location;lat;lon;timestamp;P1;durP1;ratioP1;P2;durP2;ratioP2
1799;SDS011;919;48.274;12.292;2023-03-24T00:01:47;6.40;;;5.43;;
1799;SDS011;919;48.274;12.292;2023-03-24T00:04:14;6.07;;;4.53;;
1799;SDS011;919;48.274;12.292;2023-03-24T00:06:40;5.53;;;4.70;;
1799;SDS011;919;48.274;12.292;2023-03-24T00:09:08;5.97;;;5.30;;
1799;SDS011;919;48.274;12.292;2023-03-24T00:11:36;7.17;;;5.43;;
1799;SDS011;919;48.274;12.292;2023-03-24T00:14:02;5.80;;;4.87;;
1799;SDS011;919;48.274;12.292;2023-03-24T00:16:29;5.40;;;4.13;;
1799;SDS011;919;48.274;12.292;2023-03-24T00:18:58;4.73;;;4.33;;
1799;SDS011;919;48.274;12.292;2023-03-24T00:21:25;5.53;;;4.53;;
1799;SDS011;919;48.274;12.292;2023-03-24T00:23:53;5.07;;;3.93;;
1799;SDS011;919;48.274;12.292;2023-03-24T00:26:23;4.67;;;4.10;;
1799;SDS011;919;48.274;12.292;2023-03-24T00:28:50;5.00;;;4.50;;
1799;SDS011;919;48.274;12.292;2023-03-24T00:31:17;4.90;;;4.50;;
1799;SDS011;919;48.274;12.292;2023-03-24T00:33:45;4.60;;;3.97;;
1799;SDS011;919;48.274;12.292;2023-03-24T00:36:14;4.47;;;4.07;;
1799;SDS011;919;48.274;12.292;2023-03-24T00:38:43;6.53;;;4.50;;
1799;SDS011;919;48.274;12.292;2023-03-24T00:41:12;5.40;;;4.57;;
1799;SDS011;919;48.274;12.292;2023-03-24T00:43:43;5.17;;;4.47;;
1799;SDS011;919;48.274;12.292;2023-03-24T00:46:10;5.60;;;4.90;;
1799;SDS011;919;48.274;12.292;2023-03-24T00:48:52;5.70;;;4.90;;
1799;SDS011;919;48.274;12.292;2023-03-24T00:51:21;4.53;;;4.13;;
1799;SDS011;919;48.274;12.292;2023-03-24T00:53:48;5.23;;;4.73;;
1799;SDS011;919;48.274;12.292;2023-03-24T00:56:22;5.87;;;4.97;;
1799;SDS011;919;48.274;12.292;2023-03-24T00:58:51;6.67;;;5.97;;
1799;SDS011;919;48.274;12.292;2023-03-24T01:01:21;6.60;;;5.30;;
1799;SDS011;919;48.274;12.292;2023-03-24T01:03:49;8.20;;;5.90;;
1799;SDS011;919;48.274;12.292;2023-03-24T01:06:16;6.17;;;5.20;;
1799;SDS011;919;48.274;12.292;2023-03-24T01:08:46;6.97;;;6.37;;
1799;SDS011;919;48.274;12.292;2023-03-24T01:11:13;5.77;;;5.00;;
1799;SDS011;919;48.274;12.292;2023-03-24T01:13:40;6.77;;;4.63;;
1799;SDS011;919;48.274;12.292;2023-03-24T01:16:09;5.80;;;5.20;;
1799;SDS011;919;48.274;12.292;2023-03-24T01:18:35;6.23;;;5.53;;
1799;SDS011;919;48.274;12.292;2023-03-24T01:21:04;5.60;;;5.10;;
1799;SDS011;919;48.274;12.292;2023-03-24T01:23:32;6.33;;;5.73;;
1799;SDS011;919;48.274;12.292;2023-03-24T01:25:58;6.50;;;5.40;;
1799;SDS011;919;48.274;12.292;2023-03-24T01:28:28;4.30;;;3.90;;
1799;SDS011;919;48.274;12.292;2023-03-24T01:30:56;5.93;;;5.40;;
1799;SDS011;919;48.274;12.292;2023-03-24T01:33:24;6.40;;;5.80;;
1799;SDS011;919;48.274;12.292;2023-03-24T01:35:51;8.20;;;5.83;;
1799;SDS011;919;48.274;12.292;2023-03-24T01:38:17;5.57;;;4.67;;
1799;SDS011;919;48.274;12.292;2023-03-24T01:40:45;6.03;;;5.40;;
1799;SDS011;919;48.274;12.292;2023-03-24T01:43:15;5.03;;;4.63;;
1799;SDS011;919;48.274;12.292;2023-03-24T01:45:50;5.50;;;5.00;;
1799;SDS011;919;48.274;12.292;2023-03-24T01:48:25;5.50;;;5.00;;
1799;SDS011;919;48.274;12.292;2023-03-24T01:50:58;6.03;;;5.43;;
1799;SDS011;919;48.274;12.292;2023-03-24T01:53:27;5.53;;;5.03;;
1799;SDS011;919;48.274;12.292;2023-03-24T01:55:55;8.40;;;4.93;;
1799;SDS011;919;48.274;12.292;2023-03-24T01:58:22;5.53;;;4.87;;
1799;SDS011;919;48.274;12.292;2023-03-24T02:00:50;5.00;;;4.50;;
1799;SDS011;919;48.274;12.292;2023-03-24T02:03:17;4.83;;;4.33;;
1799;SDS011;919;48.274;12.292;2023-03-24T02:05:49;4.80;;;3.80;;
1799;SDS011;919;48.274;12.292;2023-03-24T02:08:17;5.57;;;5.00;;
1799;SDS011;919;48.274;12.292;2023-03-24T02:10:51;5.30;;;4.90;;
1799;SDS011;919;48.274;12.292;2023-03-24T02:13:19;11.53;;;5.13;;
1799;SDS011;919;48.274;12.292;2023-03-24T02:18:45;5.47;;;4.73;;
1799;SDS011;919;48.274;12.292;2023-03-24T02:27:28;5.57;;;4.43;;
1799;SDS011;919;48.274;12.292;2023-03-24T02:30:24;7.00;;;4.93;;
1799;SDS011;919;48.274;12.292;2023-03-24T02:33:23;6.23;;;5.37;;
1799;SDS011;919;48.274;12.292;2023-03-24T02:36:23;4.30;;;3.90;;
1799;SDS011;919;48.274;12.292;2023-03-24T02:39:15;7.43;;;4.60;;
1799;SDS011;919;48.274;12.292;2023-03-24T02:41:58;5.67;;;5.07;;
1799;SDS011;919;48.274;12.292;2023-03-24T02:44:33;5.63;;;5.03;;
1799;SDS011;919;48.274;12.292;2023-03-24T02:47:09;7.83;;;5.00;;
1799;SDS011;919;48.274;12.292;2023-03-24T02:49:42;5.10;;;4.57;;
1799;SDS011;919;48.274;12.292;2023-03-24T02:52:15;5.90;;;5.30;;
1799;SDS011;919;48.274;12.292;2023-03-24T02:54:46;8.10;;;5.80;;
1799;SDS011;919;48.274;12.292;2023-03-24T02:57:20;6.00;;;5.20;;
1799;SDS011;919;48.274;12.292;2023-03-24T02:59:52;4.93;;;4.53;;
1799;SDS011;919;48.274;12.292;2023-03-24T03:02:24;5.13;;;4.33;;
1799;SDS011;919;48.274;12.292;2023-03-24T03:04:55;5.60;;;5.10;;
1799;SDS011;919;48.274;12.292;2023-03-24T03:07:28;6.17;;;5.67;;
1799;SDS011;919;48.274;12.292;2023-03-24T03:10:03;5.27;;;4.77;;
1799;SDS011;919;48.274;12.292;2023-03-24T03:12:34;5.47;;;5.00;;
1799;SDS011;919;48.274;12.292;2023-03-24T03:15:04;4.30;;;3.90;;
1799;SDS011;919;48.274;12.292;2023-03-24T03:17:34;6.40;;;5.17;;
1799;SDS011;919;48.274;12.292;2023-03-24T03:20:05;5.20;;;4.77;;
1799;SDS011;919;48.274;12.292;2023-03-24T03:22:37;5.40;;;4.90;;
1799;SDS011;919;48.274;12.292;2023-03-24T03:25:09;6.63;;;5.00;;
1799;SDS011;919;48.274;12.292;2023-03-24T03:27:38;5.80;;;5.10;;
1799;SDS011;919;48.274;12.292;2023-03-24T03:30:09;5.10;;;4.70;;
1799;SDS011;919;48.274;12.292;2023-03-24T03:32:43;5.83;;;5.20;;
1799;SDS011;919;48.274;12.292;2023-03-24T03:35:18;5.13;;;4.70;;
1799;SDS011;919;48.274;12.292;2023-03-24T03:37:49;5.70;;;5.20;;
1799;SDS011;919;48.274;12.292;2023-03-24T03:40:24;5.43;;;4.90;;
1799;SDS011;919;48.274;12.292;2023-03-24T03:42:56;9.17;;;5.63;;
1799;SDS011;919;48.274;12.292;2023-03-24T03:45:23;6.30;;;5.70;;
1799;SDS011;919;48.274;12.292;2023-03-24T03:47:50;6.37;;;5.60;;
1799;SDS011;919;48.274;12.292;2023-03-24T03:50:16;5.80;;;5.30;;
1799;SDS011;919;48.274;12.292;2023-03-24T03:52:43;6.53;;;5.93;;
1799;SDS011;919;48.274;12.292;2023-03-24T03:55:10;6.97;;;6.30;;
1799;SDS011;919;48.274;12.292;2023-03-24T03:57:39;7.87;;;6.30;;
1799;SDS011;919;48.274;12.292;2023-03-24T04:00:07;5.97;;;5.37;;
1799;SDS011;919;48.274;12.292;2023-03-24T04:02:42;6.20;;;5.60;;
1799;SDS011;919;48.274;12.292;2023-03-24T04:05:24;7.40;;;6.70;;
1799;SDS011;919;48.274;12.292;2023-03-24T04:08:03;7.20;;;6.50;;
1799;SDS011;919;48.274;12.292;2023-03-24T04:10:46;6.97;;;6.30;;
1799;SDS011;919;48.274;12.292;2023-03-24T04:13:33;6.30;;;5.80;;
1799;SDS011;919;48.274;12.292;2023-03-24T04:16:09;6.13;;;5.37;;
1799;SDS011;919;48.274;12.292;2023-03-24T04:18:53;7.40;;;6.47;;
1799;SDS011;919;48.274;12.292;2023-03-24T04:21:33;7.37;;;5.80;;
1799;SDS011;919;48.274;12.292;2023-03-24T04:24:15;8.50;;;6.63;;
1799;SDS011;919;48.274;12.292;2023-03-24T04:26:51;7.43;;;6.70;;
1799;SDS011;919;48.274;12.292;2023-03-24T04:29:28;5.83;;;5.23;;
1799;SDS011;919;48.274;12.292;2023-03-24T04:31:59;6.73;;;6.03;;
1799;SDS011;919;48.274;12.292;2023-03-24T04:34:31;6.50;;;5.90;;
1799;SDS011;919;48.274;12.292;2023-03-24T04:37:02;7.80;;;7.00;;
1799;SDS011;919;48.274;12.292;2023-03-24T04:39:34;7.03;;;6.33;;
1799;SDS011;919;48.274;12.292;2023-03-24T04:42:04;7.43;;;6.30;;
1799;SDS011;919;48.274;12.292;2023-03-24T04:44:36;6.60;;;5.73;;
1799;SDS011;919;48.274;12.292;2023-03-24T04:47:05;9.13;;;6.10;;
1799;SDS011;919;48.274;12.292;2023-03-24T04:49:35;6.37;;;5.77;;
1799;SDS011;919;48.274;12.292;2023-03-24T04:52:03;7.47;;;6.63;;
1799;SDS011;919;48.274;12.292;2023-03-24T04:54:30;7.00;;;6.30;;
1799;SDS011;919;48.274;12.292;2023-03-24T04:56:57;7.73;;;6.90;;
1799;SDS011;919;48.274;12.292;2023-03-24T04:59:26;6.87;;;6.17;;
1799;SDS011;919;48.274;12.292;2023-03-24T05:01:54;7.83;;;7.00;;
1799;SDS011;919;48.274;12.292;2023-03-24T05:04:22;7.77;;;6.57;;
1799;SDS011;919;48.274;12.292;2023-03-24T05:06:49;6.87;;;6.17;;
1799;SDS011;919;48.274;12.292;2023-03-24T05:09:17;7.40;;;6.67;;
1799;SDS011;919;48.274;12.292;2023-03-24T05:11:45;8.83;;;6.67;;
1799;SDS011;919;48.274;12.292;2023-03-24T05:14:12;9.97;;;7.20;;
1799;SDS011;919;48.274;12.292;2023-03-24T05:16:39;7.97;;;7.17;;
1799;SDS011;919;48.274;12.292;2023-03-24T05:19:08;8.20;;;6.87;;
1799;SDS011;919;48.274;12.292;2023-03-24T05:21:35;10.40;;;7.20;;
1799;SDS011;919;48.274;12.292;2023-03-24T05:24:02;8.17;;;6.93;;
1799;SDS011;919;48.274;12.292;2023-03-24T05:26:29;8.40;;;7.00;;
1799;SDS011;919;48.274;12.292;2023-03-24T05:28:56;9.03;;;7.67;;
1799;SDS011;919;48.274;12.292;2023-03-24T05:31:22;7.80;;;7.10;;
1799;SDS011;919;48.274;12.292;2023-03-24T05:33:49;7.63;;;6.93;;
1799;SDS011;919;48.274;12.292;2023-03-24T05:36:17;8.03;;;7.20;;
1799;SDS011;919;48.274;12.292;2023-03-24T05:38:44;8.57;;;6.93;;
1799;SDS011;919;48.274;12.292;2023-03-24T05:41:11;6.90;;;6.20;;
1799;SDS011;919;48.274;12.292;2023-03-24T05:43:37;6.50;;;5.90;;
1799;SDS011;919;48.274;12.292;2023-03-24T05:46:04;7.60;;;6.47;;
1799;SDS011;919;48.274;12.292;2023-03-24T05:48:31;8.80;;;6.90;;
1799;SDS011;919;48.274;12.292;2023-03-24T05:50:58;8.10;;;6.83;;
1799;SDS011;919;48.274;12.292;2023-03-24T05:53:26;5.70;;;5.20;;
1799;SDS011;919;48.274;12.292;2023-03-24T05:55:52;8.30;;;7.10;;
1799;SDS011;919;48.274;12.292;2023-03-24T05:58:22;7.43;;;6.50;;
1799;SDS011;919;48.274;12.292;2023-03-24T06:00:49;8.57;;;7.20;;
1799;SDS011;919;48.274;12.292;2023-03-24T06:03:16;7.97;;;7.00;;
1799;SDS011;919;48.274;12.292;2023-03-24T06:05:42;7.17;;;6.43;;
1799;SDS011;919;48.274;12.292;2023-03-24T06:08:11;7.53;;;6.67;;
1799;SDS011;919;48.274;12.292;2023-03-24T06:10:39;7.63;;;6.70;;
1799;SDS011;919;48.274;12.292;2023-03-24T06:13:06;7.70;;;6.73;;
1799;SDS011;919;48.274;12.292;2023-03-24T06:15:33;7.97;;;6.47;;
1799;SDS011;919;48.274;12.292;2023-03-24T06:18:03;6.70;;;6.10;;
1799;SDS011;919;48.274;12.292;2023-03-24T06:20:30;7.00;;;6.30;;
1799;SDS011;919;48.274;12.292;2023-03-24T06:22:57;7.13;;;6.43;;
1799;SDS011;919;48.274;12.292;2023-03-24T06:25:24;8.40;;;6.80;;
1799;SDS011;919;48.274;12.292;2023-03-24T06:27:53;7.63;;;6.60;;
1799;SDS011;919;48.274;12.292;2023-03-24T06:30:19;7.20;;;6.50;;
1799;SDS011;919;48.274;12.292;2023-03-24T06:32:46;8.17;;;7.37;;
1799;SDS011;919;48.274;12.292;2023-03-24T06:35:13;7.80;;;7.00;;
1799;SDS011;919;48.274;12.292;2023-03-24T06:37:41;6.23;;;5.63;;
1799;SDS011;919;48.274;12.292;2023-03-24T06:40:09;7.10;;;6.40;;
1799;SDS011;919;48.274;12.292;2023-03-24T06:42:39;8.40;;;6.40;;
1799;SDS011;919;48.274;12.292;2023-03-24T06:45:08;6.97;;;6.10;;
1799;SDS011;919;48.274;12.292;2023-03-24T06:47:35;7.20;;;6.37;;
1799;SDS011;919;48.274;12.292;2023-03-24T06:50:02;8.30;;;6.70;;
1799;SDS011;919;48.274;12.292;2023-03-24T06:52:30;7.43;;;5.90;;
1799;SDS011;919;48.274;12.292;2023-03-24T06:54:57;8.43;;;6.43;;
1799;SDS011;919;48.274;12.292;2023-03-24T06:57:24;7.13;;;5.23;;
1799;SDS011;919;48.274;12.292;2023-03-24T06:59:51;7.17;;;6.47;;
1799;SDS011;919;48.274;12.292;2023-03-24T07:02:19;7.87;;;7.07;;
1799;SDS011;919;48.274;12.292;2023-03-24T07:04:46;9.10;;;7.40;;
1799;SDS011;919;48.274;12.292;2023-03-24T07:07:14;7.77;;;6.50;;
1799;SDS011;919;48.274;12.292;2023-03-24T07:09:41;7.37;;;6.67;;
1799;SDS011;919;48.274;12.292;2023-03-24T07:12:08;8.10;;;6.60;;
1799;SDS011;919;48.274;12.292;2023-03-24T07:14:35;7.97;;;6.77;;
1799;SDS011;919;48.274;12.292;2023-03-24T07:17:02;9.37;;;7.77;;
1799;SDS011;919;48.274;12.292;2023-03-24T07:19:30;9.20;;;6.97;;
1799;SDS011;919;48.274;12.292;2023-03-24T07:21:57;8.23;;;6.80;;
1799;SDS011;919;48.274;12.292;2023-03-24T07:24:23;6.63;;;6.03;;
1799;SDS011;919;48.274;12.292;2023-03-24T07:26:50;6.80;;;6.20;;
1799;SDS011;919;48.274;12.292;2023-03-24T07:29:17;6.67;;;6.07;;
1799;SDS011;919;48.274;12.292;2023-03-24T07:31:44;8.30;;;7.50;;
1799;SDS011;919;48.274;12.292;2023-03-24T07:34:12;7.90;;;6.87;;
1799;SDS011;919;48.274;12.292;2023-03-24T07:36:41;6.77;;;6.13;;
1799;SDS011;919;48.274;12.292;2023-03-24T07:39:08;6.97;;;5.37;;
1799;SDS011;919;48.274;12.292;2023-03-24T07:41:35;7.33;;;5.90;;
1799;SDS011;919;48.274;12.292;2023-03-24T07:44:01;9.10;;;6.70;;
1799;SDS011;919;48.274;12.292;2023-03-24T07:46:28;9.43;;;7.73;;
1799;SDS011;919;48.274;12.292;2023-03-24T07:48:55;7.80;;;7.00;;
1799;SDS011;919;48.274;12.292;2023-03-24T07:51:22;9.10;;;7.50;;
1799;SDS011;919;48.274;12.292;2023-03-24T07:53:50;7.43;;;6.73;;
1799;SDS011;919;48.274;12.292;2023-03-24T07:56:17;8.20;;;7.03;;
1799;SDS011;919;48.274;12.292;2023-03-24T07:58:43;10.27;;;7.53;;
1799;SDS011;919;48.274;12.292;2023-03-24T08:01:11;7.80;;;6.57;;
1799;SDS011;919;48.274;12.292;2023-03-24T08:03:38;7.70;;;7.00;;
1799;SDS011;919;48.274;12.292;2023-03-24T08:06:06;7.70;;;7.00;;
1799;SDS011;919;48.274;12.292;2023-03-24T08:08:33;8.70;;;7.30;;
1799;SDS011;919;48.274;12.292;2023-03-24T08:11:01;7.47;;;6.37;;
1799;SDS011;919;48.274;12.292;2023-03-24T08:13:29;8.70;;;6.90;;
1799;SDS011;919;48.274;12.292;2023-03-24T08:15:55;6.33;;;5.77;;
1799;SDS011;919;48.274;12.292;2023-03-24T08:18:23;10.77;;;7.73;;
1799;SDS011;919;48.274;12.292;2023-03-24T08:20:53;7.13;;;6.43;;
1799;SDS011;919;48.274;12.292;2023-03-24T08:23:21;6.83;;;6.23;;
1799;SDS011;919;48.274;12.292;2023-03-24T08:25:49;7.00;;;6.33;;
1799;SDS011;919;48.274;12.292;2023-03-24T08:28:17;12.07;;;7.30;;
1799;SDS011;919;48.274;12.292;2023-03-24T08:30:44;8.50;;;7.10;;
1799;SDS011;919;48.274;12.292;2023-03-24T08:33:11;9.97;;;8.77;;
1799;SDS011;919;48.274;12.292;2023-03-24T08:35:39;7.30;;;6.57;;
1799;SDS011;919;48.274;12.292;2023-03-24T08:38:07;8.07;;;7.23;;
1799;SDS011;919;48.274;12.292;2023-03-24T08:40:36;12.20;;;8.13;;
1799;SDS011;919;48.274;12.292;2023-03-24T08:43:05;8.10;;;7.30;;
1799;SDS011;919;48.274;12.292;2023-03-24T08:45:35;7.27;;;6.13;;
1799;SDS011;919;48.274;12.292;2023-03-24T08:48:02;9.30;;;7.23;;
1799;SDS011;919;48.274;12.292;2023-03-24T08:50:31;7.47;;;6.77;;
1799;SDS011;919;48.274;12.292;2023-03-24T08:53:00;8.30;;;7.20;;
1799;SDS011;919;48.274;12.292;2023-03-24T08:55:27;9.83;;;7.90;;
1799;SDS011;919;48.274;12.292;2023-03-24T08:57:54;8.50;;;7.60;;
1799;SDS011;919;48.274;12.292;2023-03-24T09:00:21;8.17;;;7.37;;
1799;SDS011;919;48.274;12.292;2023-03-24T09:02:50;6.87;;;6.27;;
1799;SDS011;919;48.274;12.292;2023-03-24T09:05:19;8.30;;;7.50;;
1799;SDS011;919;48.274;12.292;2023-03-24T09:07:47;9.40;;;7.00;;
1799;SDS011;919;48.274;12.292;2023-03-24T09:10:15;9.50;;;7.73;;
1799;SDS011;919;48.274;12.292;2023-03-24T09:12:42;8.23;;;7.20;;
1799;SDS011;919;48.274;12.292;2023-03-24T09:15:10;9.00;;;8.20;;
1799;SDS011;919;48.274;12.292;2023-03-24T09:17:38;10.17;;;8.50;;
1799;SDS011;919;48.274;12.292;2023-03-24T09:20:08;9.73;;;8.17;;
1799;SDS011;919;48.274;12.292;2023-03-24T09:22:36;24.70;;;12.80;;
1799;SDS011;919;48.274;12.292;2023-03-24T09:25:03;8.87;;;7.97;;
1799;SDS011;919;48.274;12.292;2023-03-24T09:27:31;7.17;;;6.47;;
1799;SDS011;919;48.274;12.292;2023-03-24T09:29:57;21.37;;;10.60;;
1799;SDS011;919;48.274;12.292;2023-03-24T09:32:25;8.23;;;7.20;;
1799;SDS011;919;48.274;12.292;2023-03-24T09:34:51;7.17;;;6.47;;
1799;SDS011;919;48.274;12.292;2023-03-24T09:37:19;7.53;;;6.77;;
1799;SDS011;919;48.274;12.292;2023-03-24T09:39:46;10.63;;;7.93;;
1799;SDS011;919;48.274;12.292;2023-03-24T09:42:14;8.67;;;7.33;;
1799;SDS011;919;48.274;12.292;2023-03-24T09:44:45;9.40;;;6.40;;
1799;SDS011;919;48.274;12.292;2023-03-24T09:47:19;7.90;;;7.20;;
1799;SDS011;919;48.274;12.292;2023-03-24T09:49:51;8.83;;;7.13;;
1799;SDS011;919;48.274;12.292;2023-03-24T09:52:23;6.93;;;5.70;;
1799;SDS011;919;48.274;12.292;2023-03-24T09:54:57;6.63;;;6.03;;
1799;SDS011;919;48.274;12.292;2023-03-24T09:57:27;7.53;;;6.83;;
1799;SDS011;919;48.274;12.292;2023-03-24T10:00:00;9.17;;;8.20;;
1799;SDS011;919;48.274;12.292;2023-03-24T10:02:34;7.87;;;7.17;;
1799;SDS011;919;48.274;12.292;2023-03-24T10:05:01;8.33;;;7.20;;
1799;SDS011;919;48.274;12.292;2023-03-24T10:07:39;7.83;;;6.63;;
1799;SDS011;919;48.274;12.292;2023-03-24T10:10:14;6.20;;;5.60;;
1799;SDS011;919;48.274;12.292;2023-03-24T10:12:48;5.90;;;5.20;;
1799;SDS011;919;48.274;12.292;2023-03-24T10:15:16;5.90;;;4.63;;
1799;SDS011;919;48.274;12.292;2023-03-24T10:17:50;5.30;;;4.80;;
1799;SDS011;919;48.274;12.292;2023-03-24T10:20:28;6.10;;;4.30;;
1799;SDS011;919;48.274;12.292;2023-03-24T10:23:02;4.27;;;3.87;;
1799;SDS011;919;48.274;12.292;2023-03-24T10:25:43;3.77;;;3.47;;
1799;SDS011;919;48.274;12.292;2023-03-24T10:28:17;4.10;;;3.70;;
1799;SDS011;919;48.274;12.292;2023-03-24T10:30:46;3.93;;;3.50;;
1799;SDS011;919;48.274;12.292;2023-03-24T10:33:15;3.83;;;3.17;;
1799;SDS011;919;48.274;12.292;2023-03-24T10:35:42;4.30;;;3.90;;
1799;SDS011;919;48.274;12.292;2023-03-24T10:38:17;4.60;;;4.13;;
1799;SDS011;919;48.274;12.292;2023-03-24T10:40:45;4.30;;;3.90;;
1799;SDS011;919;48.274;12.292;2023-03-24T10:43:13;5.47;;;4.27;;
1799;SDS011;919;48.274;12.292;2023-03-24T10:45:42;4.87;;;3.10;;
1799;SDS011;919;48.274;12.292;2023-03-24T10:48:12;6.07;;;3.80;;
1799;SDS011;919;48.274;12.292;2023-03-24T10:50:41;3.60;;;3.30;;
1799;SDS011;919;48.274;12.292;2023-03-24T10:53:15;4.90;;;3.27;;
1799;SDS011;919;48.274;12.292;2023-03-24T10:55:44;3.80;;;3.20;;
1799;SDS011;919;48.274;12.292;2023-03-24T10:58:14;5.10;;;3.73;;
1799;SDS011;919;48.274;12.292;2023-03-24T11:00:45;4.20;;;3.47;;
1799;SDS011;919;48.274;12.292;2023-03-24T11:03:14;4.90;;;3.57;;
1799;SDS011;919;48.274;12.292;2023-03-24T11:05:43;5.53;;;4.43;;
1799;SDS011;919;48.274;12.292;2023-03-24T11:08:17;3.67;;;3.10;;
1799;SDS011;919;48.274;12.292;2023-03-24T11:10:52;3.90;;;3.53;;
1799;SDS011;919;48.274;12.292;2023-03-24T11:13:19;3.87;;;3.43;;
1799;SDS011;919;48.274;12.292;2023-03-24T11:15:55;3.43;;;3.13;;
1799;SDS011;919;48.274;12.292;2023-03-24T11:18:30;5.30;;;3.97;;
1799;SDS011;919;48.274;12.292;2023-03-24T11:20:57;3.43;;;3.03;;
1799;SDS011;919;48.274;12.292;2023-03-24T11:23:30;5.10;;;3.40;;
1799;SDS011;919;48.274;12.292;2023-03-24T11:26:03;3.83;;;3.53;;
1799;SDS011;919;48.274;12.292;2023-03-24T11:28:34;4.00;;;3.23;;
1799;SDS011;919;48.274;12.292;2023-03-24T11:31:05;4.33;;;3.90;;
1799;SDS011;919;48.274;12.292;2023-03-24T11:33:33;4.30;;;3.90;;
1799;SDS011;919;48.274;12.292;2023-03-24T11:36:13;4.17;;;3.60;;
1799;SDS011;919;48.274;12.292;2023-03-24T11:39:13;3.60;;;3.30;;
1799;SDS011;919;48.274;12.292;2023-03-24T11:42:01;4.37;;;3.90;;
1799;SDS011;919;48.274;12.292;2023-03-24T11:44:31;5.80;;;3.80;;
1799;SDS011;919;48.274;12.292;2023-03-24T11:47:08;3.90;;;3.50;;
1799;SDS011;919;48.274;12.292;2023-03-24T11:49:39;7.03;;;4.00;;
1799;SDS011;919;48.274;12.292;2023-03-24T11:52:12;5.10;;;3.50;;
1799;SDS011;919;48.274;12.292;2023-03-24T11:54:47;6.00;;;4.70;;
1799;SDS011;919;48.274;12.292;2023-03-24T11:57:14;3.90;;;3.60;;
1799;SDS011;919;48.274;12.292;2023-03-24T11:59:47;4.13;;;3.73;;
1799;SDS011;919;48.274;12.292;2023-03-24T12:02:23;3.40;;;3.10;;
1799;SDS011;919;48.274;12.292;2023-03-24T12:05:11;3.50;;;3.20;;
1799;SDS011;919;48.274;12.292;2023-03-24T12:07:50;2.30;;;2.07;;
1799;SDS011;919;48.274;12.292;2023-03-24T12:10:28;2.63;;;2.33;;
1799;SDS011;919;48.274;12.292;2023-03-24T12:13:06;2.57;;;2.37;;
1799;SDS011;919;48.274;12.292;2023-03-24T12:15:36;1.53;;;1.43;;
1799;SDS011;919;48.274;12.292;2023-03-24T12:18:16;3.13;;;1.87;;
1799;SDS011;919;48.274;12.292;2023-03-24T12:20:53;1.80;;;1.70;;
1799;SDS011;919;48.274;12.292;2023-03-24T12:23:27;2.43;;;2.20;;
1799;SDS011;919;48.274;12.292;2023-03-24T12:26:07;2.10;;;1.90;;
1799;SDS011;919;48.274;12.292;2023-03-24T12:28:49;2.40;;;2.10;;
1799;SDS011;919;48.274;12.292;2023-03-24T12:31:34;3.13;;;2.70;;
1799;SDS011;919;48.274;12.292;2023-03-24T12:34:18;2.80;;;2.60;;
1799;SDS011;919;48.274;12.292;2023-03-24T12:37:08;3.70;;;2.33;;
1799;SDS011;919;48.274;12.292;2023-03-24T12:39:45;3.30;;;3.03;;
1799;SDS011;919;48.274;12.292;2023-03-24T12:42:21;3.87;;;2.77;;
1799;SDS011;919;48.274;12.292;2023-03-24T12:47:47;2.63;;;2.13;;
1799;SDS011;919;48.274;12.292;2023-03-24T12:50:27;2.93;;;2.60;;
1799;SDS011;919;48.274;12.292;2023-03-24T12:53:04;3.20;;;2.97;;
1799;SDS011;919;48.274;12.292;2023-03-24T12:55:41;3.20;;;2.90;;
1799;SDS011;919;48.274;12.292;2023-03-24T12:58:13;3.40;;;3.03;;
1799;SDS011;919;48.274;12.292;2023-03-24T13:00:46;2.90;;;2.70;;
1799;SDS011;919;48.274;12.292;2023-03-24T13:03:22;3.80;;;2.50;;
1799;SDS011;919;48.274;12.292;2023-03-24T13:05:54;3.00;;;2.70;;
1799;SDS011;919;48.274;12.292;2023-03-24T13:08:24;4.60;;;2.90;;
1799;SDS011;919;48.274;12.292;2023-03-24T13:10:55;3.40;;;3.07;;
1799;SDS011;919;48.274;12.292;2023-03-24T13:13:28;3.40;;;2.47;;
1799;SDS011;919;48.274;12.292;2023-03-24T13:16:01;4.30;;;3.30;;
1799;SDS011;919;48.274;12.292;2023-03-24T13:18:30;6.37;;;3.20;;
1799;SDS011;919;48.274;12.292;2023-03-24T13:21:02;3.47;;;3.17;;
1799;SDS011;919;48.274;12.292;2023-03-24T13:23:39;3.13;;;2.93;;
1799;SDS011;919;48.274;12.292;2023-03-24T13:26:19;6.00;;;3.20;;
1799;SDS011;919;48.274;12.292;2023-03-24T13:28:55;5.07;;;3.40;;
1799;SDS011;919;48.274;12.292;2023-03-24T13:31:30;2.70;;;2.50;;
1799;SDS011;919;48.274;12.292;2023-03-24T13:34:00;3.30;;;3.00;;
1799;SDS011;919;48.274;12.292;2023-03-24T13:36:33;3.00;;;2.80;;
1799;SDS011;919;48.274;12.292;2023-03-24T13:39:10;4.00;;;3.13;;
1799;SDS011;919;48.274;12.292;2023-03-24T13:41:39;2.07;;;1.97;;
1799;SDS011;919;48.274;12.292;2023-03-24T13:44:16;2.27;;;2.00;;
1799;SDS011;919;48.274;12.292;2023-03-24T13:46:58;1.93;;;1.60;;
1799;SDS011;919;48.274;12.292;2023-03-24T13:49:37;1.30;;;1.20;;
1799;SDS011;919;48.274;12.292;2023-03-24T13:52:06;1.50;;;1.40;;
1799;SDS011;919;48.274;12.292;2023-03-24T13:54:52;1.60;;;1.50;;
1799;SDS011;919;48.274;12.292;2023-03-24T13:57:22;1.00;;;1.00;;
1799;SDS011;919;48.274;12.292;2023-03-24T14:00:14;2.83;;;1.80;;
1799;SDS011;919;48.274;12.292;2023-03-24T14:02:44;1.77;;;1.67;;
1799;SDS011;919;48.274;12.292;2023-03-24T14:05:33;1.60;;;1.50;;
1799;SDS011;919;48.274;12.292;2023-03-24T14:08:15;1.90;;;1.77;;
1799;SDS011;919;48.274;12.292;2023-03-24T14:10:46;2.10;;;1.90;;
1799;SDS011;919;48.274;12.292;2023-03-24T14:13:18;1.93;;;1.80;;
1799;SDS011;919;48.274;12.292;2023-03-24T14:15:48;1.83;;;1.73;;
1799;SDS011;919;48.274;12.292;2023-03-24T14:21:05;1.97;;;1.87;;
1799;SDS011;919;48.274;12.292;2023-03-24T14:23:34;4.83;;;2.00;;
1799;SDS011;919;48.274;12.292;2023-03-24T14:26:03;3.33;;;2.20;;
1799;SDS011;919;48.274;12.292;2023-03-24T14:28:31;2.40;;;2.20;;
1799;SDS011;919;48.274;12.292;2023-03-24T14:31:08;1.90;;;1.80;;
1799;SDS011;919;48.274;12.292;2023-03-24T14:33:44;2.23;;;2.10;;
1799;SDS011;919;48.274;12.292;2023-03-24T14:36:27;3.47;;;2.73;;
1799;SDS011;919;48.274;12.292;2023-03-24T14:38:56;2.87;;;2.60;;
1799;SDS011;919;48.274;12.292;2023-03-24T14:41:35;2.00;;;1.90;;
1799;SDS011;919;48.274;12.292;2023-03-24T14:44:05;1.77;;;1.67;;
1799;SDS011;919;48.274;12.292;2023-03-24T14:46:34;2.17;;;1.90;;
1799;SDS011;919;48.274;12.292;2023-03-24T14:49:04;1.70;;;1.60;;
1799;SDS011;919;48.274;12.292;2023-03-24T14:51:38;1.80;;;1.40;;
1799;SDS011;919;48.274;12.292;2023-03-24T14:54:11;1.60;;;1.50;;
1799;SDS011;919;48.274;12.292;2023-03-24T14:56:42;1.67;;;1.40;;
1799;SDS011;919;48.274;12.292;2023-03-24T14:59:16;1.87;;;1.50;;
1799;SDS011;919;48.274;12.292;2023-03-24T15:01:48;2.30;;;1.40;;
1799;SDS011;919;48.274;12.292;2023-03-24T15:04:19;1.53;;;1.43;;
1799;SDS011;919;48.274;12.292;2023-03-24T15:06:46;1.20;;;1.10;;
1799;SDS011;919;48.274;12.292;2023-03-24T15:09:14;1.70;;;1.60;;
1799;SDS011;919;48.274;12.292;2023-03-24T15:11:42;2.93;;;1.93;;
1799;SDS011;919;48.274;12.292;2023-03-24T15:14:17;2.27;;;1.87;;
1799;SDS011;919;48.274;12.292;2023-03-24T15:20:23;1.50;;;1.20;;
1799;SDS011;919;48.274;12.292;2023-03-24T15:22:52;1.33;;;1.23;;
1799;SDS011;919;48.274;12.292;2023-03-24T15:25:23;1.70;;;1.60;;
1799;SDS011;919;48.274;12.292;2023-03-24T15:27:52;1.17;;;1.07;;
1799;SDS011;919;48.274;12.292;2023-03-24T15:30:19;1.47;;;1.30;;
1799;SDS011;919;48.274;12.292;2023-03-24T15:32:46;1.30;;;1.20;;
1799;SDS011;919;48.274;12.292;2023-03-24T15:35:15;1.40;;;1.30;;
1799;SDS011;919;48.274;12.292;2023-03-24T15:37:48;1.07;;;1.07;;
1799;SDS011;919;48.274;12.292;2023-03-24T15:40:36;1.40;;;1.30;;
1799;SDS011;919;48.274;12.292;2023-03-24T15:43:05;1.30;;;1.20;;
1799;SDS011;919;48.274;12.292;2023-03-24T15:45:34;1.30;;;1.20;;
1799;SDS011;919;48.274;12.292;2023-03-24T15:48:03;1.10;;;1.00;;
1799;SDS011;919;48.274;12.292;2023-03-24T15:50:33;1.40;;;1.27;;
1799;SDS011;919;48.274;12.292;2023-03-24T15:53:04;1.20;;;1.10;;
1799;SDS011;919;48.274;12.292;2023-03-24T15:55:45;1.17;;;0.80;;
1799;SDS011;919;48.274;12.292;2023-03-24T15:58:19;1.10;;;1.00;;